West Panama City Beach, Florida
Current Conditions -  °F | °C
As of 6:53 PM on Wednesday 22 Oct 2014 (Local Time) from KECP Reporting Station
Clear Clear  
Wind Chill: 16°   Ceiling: Unl
Heat Index: 16°   Visibility: 10mi
Dew Point: 11°   Wind: 3mph
Humidity: 72%   Direction: 340°NNW
Pressure: 30.01"   Gusts: NA
Location:  30.3525°N, 85.9093°W
Report Text: KECP 222353Z 34003KT 10SM CLR 16/11 A3001 RMK AO2 SLP174 T01610111 10267 20161 53010
Loading
Personal Weather Stations






























Interactive Weather Map
Tropical Storm Tracking
New forecast layout! Learn more

10-Day Weather Forecast

Advertisements
Track Severe Weather on mobile